Time;durP1;ratioP1;P1;durP2;ratioP2;P2;SDS_P1;SDS_P2;PMS_P1;PMS_P2;Temp;Humidity;BMP_temperature;BMP_pressure;BME280_temperature;BME280_humidity;BME280_pressure;Samples;Min_cycle;Max_cycle;Signal;HPM_P1;HPM_P2
2021/10/18 00:03:10;;;;;;;10.18;3.80;;;11.40;99.90;;;;;;20725336;28;20030;-79
2021/10/18 00:13:14;;;;;;;5.95;2.50;;;11.40;99.90;;;;;;20699698;28;20041;-80
2021/10/18 00:23:15;;;;;;;5.95;2.85;;;11.30;99.90;;;;;;20707327;28;20448;-80
2021/10/18 00:33:17;;;;;;;9.73;3.35;;;11.30;99.90;;;;;;20694337;28;20037;-79
2021/10/18 00:43:18;;;;;;;4.22;2.85;;;11.30;99.90;;;;;;20750286;28;20060;-79
2021/10/18 00:53:19;;;;;;;10.70;2.88;;;11.40;99.90;;;;;;20732007;28;20053;-79
2021/10/18 01:03:21;;;;;;;8.73;3.60;;;11.30;99.90;;;;;;20713930;28;20046;-79
2021/10/18 01:13:22;;;;;;;6.90;3.28;;;11.20;99.90;;;;;;20713707;28;20162;-79
2021/10/18 01:23:24;;;;;;;8.45;3.50;;;11.20;99.90;;;;;;20717695;28;20045;-79
2021/10/18 01:33:25;;;;;;;7.85;3.33;;;11.20;99.90;;;;;;20688457;28;20493;-79
2021/10/18 01:43:26;;;;;;;21.55;3.22;;;11.20;99.90;;;;;;20713755;28;20056;-79
2021/10/18 01:53:27;;;;;;;7.78;3.05;;;11.20;99.90;;;;;;20734441;28;20048;-79
2021/10/18 02:03:28;;;;;;;8.93;3.40;;;11.10;99.90;;;;;;20708965;28;20045;-78
2021/10/18 02:13:29;;;;;;;8.15;3.20;;;11.00;99.90;;;;;;20700781;28;20037;-78
2021/10/18 02:23:31;;;;;;;7.00;3.13;;;10.80;99.90;;;;;;20698579;28;20518;-79
2021/10/18 02:33:32;;;;;;;7.90;3.75;;;10.80;99.90;;;;;;20717216;28;20046;-79
2021/10/18 02:43:34;;;;;;;10.98;3.80;;;10.70;99.90;;;;;;20726482;28;20493;-78
2021/10/18 02:53:35;;;;;;;8.93;4.55;;;10.50;99.90;;;;;;20710951;28;20052;-79
2021/10/18 03:03:36;;;;;;;8.75;4.18;;;10.40;99.90;;;;;;20723648;28;20050;-79
2021/10/18 03:13:37;;;;;;;10.32;4.20;;;10.30;99.90;;;;;;20708886;28;20034;-78
2021/10/18 03:23:38;;;;;;;8.77;3.63;;;10.30;99.90;;;;;;20693910;28;20398;-79
2021/10/18 03:33:40;;;;;;;10.38;3.72;;;10.30;99.90;;;;;;20687480;28;20034;-78
2021/10/18 03:43:41;;;;;;;15.05;4.47;;;10.20;99.90;;;;;;20665761;28;20041;-79
2021/10/18 03:53:42;;;;;;;11.38;5.32;;;10.10;99.90;;;;;;20665546;28;20041;-77
2021/10/18 04:03:45;;;;;;;7.95;3.55;;;10.00;99.90;;;;;;20671945;28;20053;-77
2021/10/18 04:13:46;;;;;;;8.95;3.78;;;9.90;99.90;;;;;;20722684;28;20030;-77
2021/10/18 04:23:47;;;;;;;8.88;3.83;;;9.90;99.90;;;;;;20710129;28;20063;-78
2021/10/18 04:33:48;;;;;;;8.40;4.53;;;9.90;99.90;;;;;;20728432;28;20505;-77
2021/10/18 04:43:49;;;;;;;9.90;4.00;;;9.70;99.90;;;;;;20673950;28;21320;-78
2021/10/18 04:53:50;;;;;;;11.38;4.68;;;9.70;99.90;;;;;;20646975;28;20049;-77
2021/10/18 05:03:52;;;;;;;9.30;4.65;;;9.80;99.90;;;;;;20658318;28;20041;-78
2021/10/18 05:13:53;;;;;;;13.27;4.22;;;9.80;99.90;;;;;;20686463;28;20040;-78
2021/10/18 05:23:54;;;;;;;11.45;4.63;;;9.70;99.90;;;;;;20678956;28;20062;-78
2021/10/18 05:33:55;;;;;;;10.90;4.40;;;9.70;99.90;;;;;;20644074;28;20786;-79
2021/10/18 05:43:56;;;;;;;13.73;4.22;;;9.60;99.90;;;;;;20650599;28;20041;-78
2021/10/18 05:53:58;;;;;;;12.82;4.72;;;9.60;99.90;;;;;;20630488;28;20046;-78
2021/10/18 06:04:00;;;;;;;12.68;5.53;;;9.60;99.90;;;;;;20637799;28;20508;-78
2021/10/18 06:14:01;;;;;;;14.90;6.38;;;9.60;99.90;;;;;;20632746;28;20047;-78
2021/10/18 06:24:02;;;;;;;17.20;5.97;;;9.60;99.90;;;;;;20652108;28;20039;-79
2021/10/18 06:34:03;;;;;;;12.18;5.40;;;9.60;99.90;;;;;;20670855;28;20034;-77
2021/10/18 06:44:04;;;;;;;14.95;4.80;;;9.70;99.90;;;;;;20648248;28;20041;-79
2021/10/18 06:54:06;;;;;;;14.07;5.50;;;9.70;99.90;;;;;;20673057;28;20034;-78
2021/10/18 07:04:07;;;;;;;12.75;5.20;;;9.80;99.90;;;;;;20649948;28;20033;-80
2021/10/18 07:14:08;;;;;;;17.13;6.63;;;9.90;99.90;;;;;;20679113;28;20038;-80
2021/10/18 07:24:10;;;;;;;14.60;6.07;;;10.00;99.90;;;;;;20666190;28;20049;-79
2021/10/18 07:34:17;;;;;;;18.80;6.40;;;10.00;99.90;;;;;;20657333;28;21184;-80
2021/10/18 07:44:19;;;;;;;16.67;6.03;;;10.20;99.90;;;;;;20650703;28;20042;-79
2021/10/18 07:54:26;;;;;;;12.52;4.63;;;10.40;99.90;;;;;;20673215;28;20161;-79
2021/10/18 08:04:27;;;;;;;14.65;5.78;;;10.40;99.90;;;;;;20685228;28;20051;-80
2021/10/18 08:14:28;;;;;;;14.82;5.30;;;10.60;99.90;;;;;;20672320;28;20100;-80
2021/10/18 08:24:29;;;;;;;14.20;6.20;;;10.70;99.90;;;;;;20758202;28;20044;-80
2021/10/18 08:34:30;;;;;;;13.35;5.20;;;10.90;99.90;;;;;;20664267;28;20045;-79
2021/10/18 08:44:34;;;;;;;12.77;4.82;;;11.00;99.90;;;;;;20638337;28;20046;-79
2021/10/18 08:54:35;;;;;;;14.80;5.53;;;11.10;99.90;;;;;;20651236;28;20039;-79
2021/10/18 09:04:40;;;;;;;11.32;4.32;;;11.20;99.90;;;;;;20656402;28;20073;-79
2021/10/18 09:14:41;;;;;;;14.82;6.13;;;11.20;99.90;;;;;;20660241;28;20045;-79
2021/10/18 09:24:42;;;;;;;12.77;6.07;;;11.50;99.90;;;;;;20654492;28;20038;-79
2021/10/18 09:34:43;;;;;;;11.77;5.38;;;11.60;99.90;;;;;;20650494;28;20040;-79
2021/10/18 10:57:32;;;;;;;10.82;4.38;;;12.90;99.90;;;;;;20571270;28;20066;-81
2021/10/18 11:07:33;;;;;;;11.30;4.32;;;13.30;99.90;;;;;;20636542;28;20053;-80
2021/10/18 11:17:46;;;;;;;10.85;4.65;;;13.60;99.90;;;;;;20601853;28;20967;-81
2021/10/18 11:27:59;;;;;;;10.35;4.75;;;13.90;99.90;;;;;;20650081;28;20494;-80
2021/10/18 11:38:06;;;;;;;9.95;4.13;;;14.00;99.90;;;;;;20646565;28;20269;-80
2021/10/18 11:48:17;;;;;;;10.68;4.43;;;13.90;99.90;;;;;;20642014;28;20100;-80
2021/10/18 11:58:21;;;;;;;12.63;4.75;;;13.80;99.90;;;;;;20634459;28;20512;-80
2021/10/18 12:08:33;;;;;;;10.00;4.05;;;13.90;99.90;;;;;;20666750;28;20858;-80
2021/10/18 12:18:55;;;;;;;13.07;4.32;;;13.90;99.90;;;;;;20665614;28;20025;-80
2021/10/18 12:29:07;;;;;;;11.60;3.92;;;14.10;99.90;;;;;;20608592;28;20045;-79
2021/10/18 12:39:08;;;;;;;9.40;3.45;;;14.50;99.90;;;;;;20676132;28;20375;-80
2021/10/18 12:49:09;;;;;;;11.40;3.97;;;14.80;99.90;;;;;;20628447;28;20045;-81
2021/10/18 12:59:10;;;;;;;10.57;4.47;;;14.60;99.90;;;;;;20632171;28;20046;-81
2021/10/18 13:09:13;;;;;;;8.27;3.85;;;14.40;99.90;;;;;;20657937;28;20053;-82
2021/10/18 13:19:14;;;;;;;9.88;3.70;;;14.60;99.90;;;;;;20648526;28;20375;-79
2021/10/18 13:29:15;;;;;;;9.60;3.78;;;14.70;99.90;;;;;;20646829;28;20046;-81
2021/10/18 13:39:17;;;;;;;6.50;2.85;;;14.60;99.90;;;;;;20614961;28;20038;-78
2021/10/18 13:49:18;;;;;;;6.78;2.90;;;15.20;99.90;;;;;;20644483;28;20054;-78
2021/10/18 13:59:19;;;;;;;9.70;2.95;;;15.10;99.90;;;;;;20661088;28;20042;-80
2021/10/18 14:09:20;;;;;;;11.65;3.42;;;14.80;99.90;;;;;;20618240;28;20059;-82
2021/10/18 14:19:21;;;;;;;8.60;3.40;;;14.70;99.90;;;;;;20644587;28;20033;-82
2021/10/18 14:29:22;;;;;;;10.77;3.88;;;14.50;99.90;;;;;;20642016;28;20042;-82
2021/10/18 14:39:23;;;;;;;10.27;3.38;;;14.60;99.90;;;;;;20661519;28;20077;-82
2021/10/18 14:49:25;;;;;;;8.73;3.65;;;14.60;99.90;;;;;;20600307;28;20045;-81
2021/10/18 14:59:26;;;;;;;8.18;3.47;;;14.70;99.90;;;;;;20622075;28;21381;-81
2021/10/18 15:09:27;;;;;;;6.53;2.97;;;14.80;99.90;;;;;;20614083;28;20061;-81
2021/10/18 15:19:28;;;;;;;8.95;3.83;;;14.80;99.90;;;;;;20660636;28;20034;-81
2021/10/18 15:29:30;;;;;;;7.13;2.70;;;14.80;99.90;;;;;;20624249;28;20077;-81
2021/10/18 15:39:31;;;;;;;7.72;3.03;;;14.80;99.90;;;;;;20609988;28;20043;-82
2021/10/18 15:49:32;;;;;;;8.77;4.07;;;14.70;99.90;;;;;;20625108;28;20882;-81
2021/10/18 15:59:33;;;;;;;7.95;3.00;;;14.70;99.90;;;;;;20617130;28;20049;-81
2021/10/18 16:09:34;;;;;;;8.65;3.60;;;14.70;99.90;;;;;;20637511;28;20618;-81
2021/10/18 16:19:38;;;;;;;5.45;3.22;;;14.50;99.90;;;;;;20558967;28;20041;-80
2021/10/18 16:29:39;;;;;;;9.38;3.38;;;14.40;99.90;;;;;;20571681;28;20053;-80
2021/10/18 16:39:41;;;;;;;10.50;3.08;;;14.40;99.90;;;;;;20615873;28;20054;-81
2021/10/18 16:49:42;;;;;;;6.13;2.60;;;14.30;99.90;;;;;;20594726;28;20061;-81
2021/10/18 16:59:43;;;;;;;7.18;2.88;;;14.30;99.90;;;;;;20588651;28;20046;-81
2021/10/18 17:09:44;;;;;;;4.95;2.47;;;14.20;99.90;;;;;;20613189;28;20053;-81
2021/10/18 17:19:46;;;;;;;4.63;1.98;;;14.30;99.90;;;;;;20627334;28;20039;-82
2021/10/18 17:29:47;;;;;;;7.18;3.28;;;14.20;99.90;;;;;;20576504;28;20430;-82
2021/10/18 17:39:48;;;;;;;9.82;2.70;;;14.30;99.90;;;;;;20599993;28;20026;-81
2021/10/18 17:49:49;;;;;;;6.30;2.88;;;14.30;99.90;;;;;;20571247;28;20057;-81
2021/10/18 17:59:51;;;;;;;7.97;3.60;;;14.20;99.90;;;;;;20605978;28;20043;-82
2021/10/18 18:09:52;;;;;;;6.15;2.80;;;14.10;99.90;;;;;;20571461;28;20065;-81
2021/10/18 18:19:53;;;;;;;6.20;2.92;;;14.10;99.90;;;;;;20518606;28;20047;-81
2021/10/18 18:29:54;;;;;;;7.32;2.88;;;14.20;99.90;;;;;;20591053;28;20213;-81
2021/10/18 18:39:56;;;;;;;6.05;2.45;;;14.30;99.90;;;;;;20535990;28;20484;-82
2021/10/18 18:49:58;;;;;;;7.18;2.90;;;14.30;99.90;;;;;;20633019;28;20045;-81
2021/10/18 18:59:59;;;;;;;7.97;2.80;;;14.30;99.90;;;;;;20658153;28;20039;-80
2021/10/18 19:10:00;;;;;;;9.93;2.72;;;14.50;99.90;;;;;;20632103;28;20042;-81
2021/10/18 19:20:03;;;;;;;5.38;2.85;;;14.60;99.90;;;;;;20526035;28;20038;-81
2021/10/18 19:30:08;;;;;;;6.18;2.67;;;14.60;99.90;;;;;;20586843;28;20145;-82
2021/10/18 19:40:10;;;;;;;8.00;3.03;;;14.60;99.90;;;;;;20582125;28;20042;-81
2021/10/18 19:50:15;;;;;;;4.80;2.20;;;14.60;99.90;;;;;;20593293;28;20045;-81
2021/10/18 20:00:16;;;;;;;11.35;2.78;;;14.60;99.90;;;;;;20579004;28;20577;-81
2021/10/18 20:10:21;;;;;;;7.35;3.35;;;14.50;99.90;;;;;;20525237;28;20101;-82
2021/10/18 20:20:22;;;;;;;7.75;2.42;;;14.50;99.90;;;;;;20543825;28;20563;-81
2021/10/18 20:30:23;;;;;;;9.13;3.67;;;14.50;99.90;;;;;;20512235;28;20050;-82
2021/10/18 20:40:24;;;;;;;6.13;2.75;;;14.40;99.90;;;;;;20562194;28;20042;-81
2021/10/18 20:50:26;;;;;;;10.25;3.28;;;14.50;99.90;;;;;;20538063;28;20154;-82
2021/10/18 21:00:28;;;;;;;9.20;2.90;;;14.40;99.90;;;;;;20496450;28;20061;-81
2021/10/18 21:10:29;;;;;;;5.10;2.45;;;14.30;99.90;;;;;;20643793;28;20049;-81
2021/10/18 21:20:31;;;;;;;6.45;2.95;;;14.20;99.90;;;;;;20537760;28;20042;-81
2021/10/18 21:30:33;;;;;;;8.70;3.92;;;14.30;99.90;;;;;;20563038;28;20058;-81
2021/10/18 21:40:42;;;;;;;6.43;3.42;;;14.20;99.90;;;;;;20525259;28;20057;-81
2021/10/18 21:50:43;;;;;;;10.50;3.88;;;14.20;99.90;;;;;;20539527;28;20137;-81
2021/10/18 22:00:45;;;;;;;9.20;3.45;;;14.20;99.90;;;;;;20488827;28;20215;-81
2021/10/18 22:10:50;;;;;;;9.45;3.28;;;14.20;99.90;;;;;;20616247;28;20046;-81
2021/10/18 22:20:51;;;;;;;8.45;3.45;;;14.10;99.90;;;;;;20544575;28;20374;-81
2021/10/18 22:30:53;;;;;;;6.50;3.20;;;14.20;99.90;;;;;;20497708;28;20045;-81
2021/10/18 22:40:57;;;;;;;7.82;4.03;;;14.10;99.90;;;;;;20578514;28;20040;-81
2021/10/18 22:50:58;;;;;;;10.85;4.05;;;14.20;99.90;;;;;;20559784;28;20054;-81
2021/10/18 23:00:59;;;;;;;9.07;4.40;;;14.20;99.90;;;;;;20547737;28;20042;-81
2021/10/18 23:11:00;;;;;;;12.55;4.95;;;14.20;99.90;;;;;;20531056;28;21983;-81
2021/10/18 23:21:02;;;;;;;7.88;3.90;;;14.20;99.90;;;;;;20557545;28;20049;-81
2021/10/18 23:31:03;;;;;;;10.13;4.00;;;14.20;99.90;;;;;;20539546;28;20046;-81
2021/10/18 23:41:05;;;;;;;9.82;4.35;;;14.10;99.90;;;;;;20590482;28;20049;-81
2021/10/18 23:51:06;;;;;;;11.07;3.85;;;14.20;99.90;;;;;;20577865;28;20519;-82
